sensor_id;sensor_type;location;lat;lon;timestamp;P1;durP1;ratioP1;P2;durP2;ratioP2
57241;SDS011;43095;53.302;5.786;2023-07-09T00:00:06;15.98;;;9.93;;
57241;SDS011;43095;53.302;5.786;2023-07-09T00:02:40;13.00;;;9.52;;
57241;SDS011;43095;53.302;5.786;2023-07-09T00:05:14;12.60;;;10.20;;
57241;SDS011;43095;53.302;5.786;2023-07-09T00:07:43;13.52;;;10.48;;
57241;SDS011;43095;53.302;5.786;2023-07-09T00:10:14;12.82;;;10.43;;
57241;SDS011;43095;53.302;5.786;2023-07-09T00:12:45;12.63;;;10.00;;
57241;SDS011;43095;53.302;5.786;2023-07-09T00:15:14;14.18;;;10.68;;
57241;SDS011;43095;53.302;5.786;2023-07-09T00:17:44;11.15;;;9.52;;
57241;SDS011;43095;53.302;5.786;2023-07-09T00:20:13;13.25;;;10.27;;
57241;SDS011;43095;53.302;5.786;2023-07-09T00:22:41;12.75;;;9.73;;
57241;SDS011;43095;53.302;5.786;2023-07-09T00:25:14;14.68;;;9.50;;
57241;SDS011;43095;53.302;5.786;2023-07-09T00:27:43;14.18;;;10.40;;
57241;SDS011;43095;53.302;5.786;2023-07-09T00:30:18;11.77;;;9.60;;
57241;SDS011;43095;53.302;5.786;2023-07-09T00:32:46;12.77;;;10.20;;
57241;SDS011;43095;53.302;5.786;2023-07-09T00:35:14;15.27;;;9.73;;
57241;SDS011;43095;53.302;5.786;2023-07-09T00:37:42;11.93;;;9.75;;
57241;SDS011;43095;53.302;5.786;2023-07-09T00:40:14;11.95;;;9.70;;
57241;SDS011;43095;53.302;5.786;2023-07-09T00:42:44;12.35;;;10.32;;
57241;SDS011;43095;53.302;5.786;2023-07-09T00:45:17;15.50;;;10.73;;
57241;SDS011;43095;53.302;5.786;2023-07-09T00:47:51;13.88;;;11.07;;
57241;SDS011;43095;53.302;5.786;2023-07-09T00:53:19;16.45;;;9.93;;
57241;SDS011;43095;53.302;5.786;2023-07-09T00:55:53;14.95;;;10.75;;
57241;SDS011;43095;53.302;5.786;2023-07-09T00:58:23;11.35;;;9.90;;
57241;SDS011;43095;53.302;5.786;2023-07-09T01:00:58;14.10;;;9.90;;
57241;SDS011;43095;53.302;5.786;2023-07-09T01:03:32;13.23;;;10.00;;
57241;SDS011;43095;53.302;5.786;2023-07-09T01:06:01;15.40;;;11.07;;
57241;SDS011;43095;53.302;5.786;2023-07-09T01:08:30;14.95;;;10.52;;
57241;SDS011;43095;53.302;5.786;2023-07-09T01:10:58;12.77;;;10.55;;
57241;SDS011;43095;53.302;5.786;2023-07-09T01:13:26;14.90;;;11.55;;
57241;SDS011;43095;53.302;5.786;2023-07-09T01:15:58;14.27;;;10.70;;
57241;SDS011;43095;53.302;5.786;2023-07-09T01:18:27;15.05;;;10.73;;
57241;SDS011;43095;53.302;5.786;2023-07-09T01:21:02;16.80;;;11.35;;
57241;SDS011;43095;53.302;5.786;2023-07-09T01:23:34;15.65;;;11.38;;
57241;SDS011;43095;53.302;5.786;2023-07-09T01:26:01;14.10;;;10.40;;
57241;SDS011;43095;53.302;5.786;2023-07-09T01:28:29;14.20;;;11.32;;
57241;SDS011;43095;53.302;5.786;2023-07-09T01:30:56;14.40;;;11.00;;
57241;SDS011;43095;53.302;5.786;2023-07-09T01:33:23;15.77;;;10.80;;
57241;SDS011;43095;53.302;5.786;2023-07-09T01:35:52;14.82;;;10.98;;
57241;SDS011;43095;53.302;5.786;2023-07-09T01:38:20;15.77;;;11.10;;
57241;SDS011;43095;53.302;5.786;2023-07-09T01:40:47;13.65;;;11.27;;
57241;SDS011;43095;53.302;5.786;2023-07-09T01:43:14;15.18;;;11.32;;
57241;SDS011;43095;53.302;5.786;2023-07-09T01:45:41;16.63;;;11.43;;
57241;SDS011;43095;53.302;5.786;2023-07-09T01:48:07;15.18;;;11.48;;
57241;SDS011;43095;53.302;5.786;2023-07-09T01:50:42;13.30;;;10.35;;
57241;SDS011;43095;53.302;5.786;2023-07-09T01:53:11;15.05;;;11.20;;
57241;SDS011;43095;53.302;5.786;2023-07-09T01:55:40;14.00;;;10.95;;
57241;SDS011;43095;53.302;5.786;2023-07-09T01:58:07;13.35;;;11.15;;
57241;SDS011;43095;53.302;5.786;2023-07-09T02:00:34;14.10;;;10.82;;
57241;SDS011;43095;53.302;5.786;2023-07-09T02:03:02;14.43;;;10.65;;
57241;SDS011;43095;53.302;5.786;2023-07-09T02:05:30;14.93;;;11.25;;
57241;SDS011;43095;53.302;5.786;2023-07-09T02:07:58;14.93;;;10.95;;
57241;SDS011;43095;53.302;5.786;2023-07-09T02:10:25;14.65;;;11.18;;
57241;SDS011;43095;53.302;5.786;2023-07-09T02:12:52;13.68;;;10.57;;
57241;SDS011;43095;53.302;5.786;2023-07-09T02:15:19;13.95;;;11.38;;
57241;SDS011;43095;53.302;5.786;2023-07-09T02:17:46;13.20;;;11.18;;
57241;SDS011;43095;53.302;5.786;2023-07-09T02:20:13;13.73;;;10.85;;
57241;SDS011;43095;53.302;5.786;2023-07-09T02:22:40;12.70;;;11.07;;
57241;SDS011;43095;53.302;5.786;2023-07-09T02:25:07;12.38;;;10.38;;
57241;SDS011;43095;53.302;5.786;2023-07-09T02:27:35;16.48;;;11.20;;
57241;SDS011;43095;53.302;5.786;2023-07-09T02:30:03;13.85;;;10.88;;
57241;SDS011;43095;53.302;5.786;2023-07-09T02:32:34;14.88;;;11.48;;
57241;SDS011;43095;53.302;5.786;2023-07-09T02:35:00;15.20;;;11.13;;
57241;SDS011;43095;53.302;5.786;2023-07-09T02:37:27;15.70;;;11.20;;
57241;SDS011;43095;53.302;5.786;2023-07-09T02:39:54;14.43;;;11.32;;
57241;SDS011;43095;53.302;5.786;2023-07-09T02:42:22;13.57;;;11.40;;
57241;SDS011;43095;53.302;5.786;2023-07-09T02:44:49;12.48;;;10.35;;
57241;SDS011;43095;53.302;5.786;2023-07-09T02:47:17;12.90;;;10.18;;
57241;SDS011;43095;53.302;5.786;2023-07-09T02:49:45;12.45;;;10.48;;
57241;SDS011;43095;53.302;5.786;2023-07-09T02:52:12;14.13;;;11.32;;
57241;SDS011;43095;53.302;5.786;2023-07-09T02:54:39;11.80;;;10.27;;
57241;SDS011;43095;53.302;5.786;2023-07-09T02:57:06;15.10;;;11.43;;
57241;SDS011;43095;53.302;5.786;2023-07-09T02:59:33;13.98;;;9.77;;
57241;SDS011;43095;53.302;5.786;2023-07-09T03:02:00;16.55;;;11.43;;
57241;SDS011;43095;53.302;5.786;2023-07-09T03:04:28;14.88;;;11.63;;
57241;SDS011;43095;53.302;5.786;2023-07-09T03:06:55;14.52;;;10.88;;
57241;SDS011;43095;53.302;5.786;2023-07-09T03:09:22;15.50;;;10.35;;
57241;SDS011;43095;53.302;5.786;2023-07-09T03:11:49;12.95;;;10.82;;
57241;SDS011;43095;53.302;5.786;2023-07-09T03:14:16;12.65;;;10.30;;
57241;SDS011;43095;53.302;5.786;2023-07-09T03:16:43;15.95;;;11.73;;
57241;SDS011;43095;53.302;5.786;2023-07-09T03:19:10;16.13;;;11.73;;
57241;SDS011;43095;53.302;5.786;2023-07-09T03:21:37;13.10;;;10.98;;
57241;SDS011;43095;53.302;5.786;2023-07-09T03:24:04;16.98;;;11.18;;
57241;SDS011;43095;53.302;5.786;2023-07-09T03:26:31;14.32;;;10.90;;
57241;SDS011;43095;53.302;5.786;2023-07-09T03:28:58;16.15;;;12.10;;
57241;SDS011;43095;53.302;5.786;2023-07-09T03:31:25;14.38;;;11.18;;
57241;SDS011;43095;53.302;5.786;2023-07-09T03:33:52;17.05;;;12.05;;
57241;SDS011;43095;53.302;5.786;2023-07-09T03:36:19;14.18;;;11.13;;
57241;SDS011;43095;53.302;5.786;2023-07-09T03:38:47;16.00;;;11.43;;
57241;SDS011;43095;53.302;5.786;2023-07-09T03:41:14;15.07;;;11.20;;
57241;SDS011;43095;53.302;5.786;2023-07-09T03:43:41;13.98;;;11.35;;
57241;SDS011;43095;53.302;5.786;2023-07-09T03:46:07;14.88;;;11.65;;
57241;SDS011;43095;53.302;5.786;2023-07-09T03:48:34;14.23;;;11.73;;
57241;SDS011;43095;53.302;5.786;2023-07-09T03:51:01;18.42;;;11.80;;
57241;SDS011;43095;53.302;5.786;2023-07-09T03:53:28;14.88;;;11.77;;
57241;SDS011;43095;53.302;5.786;2023-07-09T03:55:55;13.90;;;11.52;;
57241;SDS011;43095;53.302;5.786;2023-07-09T03:58:23;15.15;;;12.15;;
57241;SDS011;43095;53.302;5.786;2023-07-09T04:00:52;15.65;;;13.15;;
57241;SDS011;43095;53.302;5.786;2023-07-09T04:03:20;14.70;;;13.13;;
57241;SDS011;43095;53.302;5.786;2023-07-09T04:05:48;15.85;;;13.18;;
57241;SDS011;43095;53.302;5.786;2023-07-09T04:08:15;17.35;;;13.25;;
57241;SDS011;43095;53.302;5.786;2023-07-09T04:10:42;13.93;;;11.98;;
57241;SDS011;43095;53.302;5.786;2023-07-09T04:13:09;18.35;;;13.15;;
57241;SDS011;43095;53.302;5.786;2023-07-09T04:15:35;17.02;;;11.95;;
57241;SDS011;43095;53.302;5.786;2023-07-09T04:18:03;15.60;;;12.38;;
57241;SDS011;43095;53.302;5.786;2023-07-09T04:20:30;17.73;;;13.43;;
57241;SDS011;43095;53.302;5.786;2023-07-09T04:22:57;17.35;;;11.57;;
57241;SDS011;43095;53.302;5.786;2023-07-09T04:25:26;14.98;;;12.10;;
57241;SDS011;43095;53.302;5.786;2023-07-09T04:27:53;19.05;;;12.95;;
57241;SDS011;43095;53.302;5.786;2023-07-09T04:30:19;17.83;;;13.13;;
57241;SDS011;43095;53.302;5.786;2023-07-09T04:32:46;14.27;;;12.00;;
57241;SDS011;43095;53.302;5.786;2023-07-09T04:35:13;14.48;;;12.10;;
57241;SDS011;43095;53.302;5.786;2023-07-09T04:37:41;19.05;;;13.18;;
57241;SDS011;43095;53.302;5.786;2023-07-09T04:40:09;15.50;;;11.85;;
57241;SDS011;43095;53.302;5.786;2023-07-09T04:42:39;16.60;;;12.50;;
57241;SDS011;43095;53.302;5.786;2023-07-09T04:45:07;17.30;;;13.20;;
57241;SDS011;43095;53.302;5.786;2023-07-09T04:47:36;15.38;;;12.55;;
57241;SDS011;43095;53.302;5.786;2023-07-09T04:50:04;16.15;;;12.98;;
57241;SDS011;43095;53.302;5.786;2023-07-09T04:52:33;17.33;;;12.52;;
57241;SDS011;43095;53.302;5.786;2023-07-09T04:55:00;16.80;;;12.20;;
57241;SDS011;43095;53.302;5.786;2023-07-09T04:57:28;15.73;;;12.63;;
57241;SDS011;43095;53.302;5.786;2023-07-09T04:59:54;15.98;;;12.63;;
57241;SDS011;43095;53.302;5.786;2023-07-09T05:02:21;12.95;;;10.90;;
57241;SDS011;43095;53.302;5.786;2023-07-09T05:04:49;16.80;;;12.55;;
57241;SDS011;43095;53.302;5.786;2023-07-09T05:07:16;17.05;;;13.55;;
57241;SDS011;43095;53.302;5.786;2023-07-09T05:09:43;16.20;;;12.95;;
57241;SDS011;43095;53.302;5.786;2023-07-09T05:12:10;16.08;;;12.38;;
57241;SDS011;43095;53.302;5.786;2023-07-09T05:14:37;18.15;;;13.10;;
57241;SDS011;43095;53.302;5.786;2023-07-09T05:17:04;14.95;;;12.35;;
57241;SDS011;43095;53.302;5.786;2023-07-09T05:19:31;17.17;;;13.18;;
57241;SDS011;43095;53.302;5.786;2023-07-09T05:21:58;17.20;;;13.20;;
57241;SDS011;43095;53.302;5.786;2023-07-09T05:24:25;15.85;;;12.40;;
57241;SDS011;43095;53.302;5.786;2023-07-09T05:26:54;19.15;;;13.93;;
57241;SDS011;43095;53.302;5.786;2023-07-09T05:29:22;19.20;;;12.90;;
57241;SDS011;43095;53.302;5.786;2023-07-09T05:31:49;17.70;;;13.65;;
57241;SDS011;43095;53.302;5.786;2023-07-09T05:34:16;18.85;;;13.15;;
57241;SDS011;43095;53.302;5.786;2023-07-09T05:36:43;18.92;;;14.80;;
57241;SDS011;43095;53.302;5.786;2023-07-09T05:39:09;15.98;;;13.45;;
57241;SDS011;43095;53.302;5.786;2023-07-09T05:41:36;18.63;;;13.35;;
57241;SDS011;43095;53.302;5.786;2023-07-09T05:44:03;17.00;;;13.88;;
57241;SDS011;43095;53.302;5.786;2023-07-09T05:46:33;15.48;;;13.75;;
57241;SDS011;43095;53.302;5.786;2023-07-09T05:49:03;15.93;;;11.77;;
57241;SDS011;43095;53.302;5.786;2023-07-09T05:51:31;18.17;;;13.85;;
57241;SDS011;43095;53.302;5.786;2023-07-09T05:53:58;15.57;;;13.45;;
57241;SDS011;43095;53.302;5.786;2023-07-09T05:56:25;17.75;;;13.85;;
57241;SDS011;43095;53.302;5.786;2023-07-09T05:58:51;17.83;;;13.50;;
57241;SDS011;43095;53.302;5.786;2023-07-09T06:01:19;17.23;;;14.00;;
57241;SDS011;43095;53.302;5.786;2023-07-09T06:03:47;17.95;;;13.75;;
57241;SDS011;43095;53.302;5.786;2023-07-09T06:06:14;17.67;;;13.65;;
57241;SDS011;43095;53.302;5.786;2023-07-09T06:08:41;15.68;;;13.18;;
57241;SDS011;43095;53.302;5.786;2023-07-09T06:11:08;18.70;;;13.27;;
57241;SDS011;43095;53.302;5.786;2023-07-09T06:13:35;16.60;;;13.30;;
57241;SDS011;43095;53.302;5.786;2023-07-09T06:16:02;15.32;;;12.38;;
57241;SDS011;43095;53.302;5.786;2023-07-09T06:18:30;21.60;;;13.20;;
57241;SDS011;43095;53.302;5.786;2023-07-09T06:20:58;18.48;;;13.55;;
57241;SDS011;43095;53.302;5.786;2023-07-09T06:23:26;17.48;;;12.90;;
57241;SDS011;43095;53.302;5.786;2023-07-09T06:25:54;17.58;;;13.63;;
57241;SDS011;43095;53.302;5.786;2023-07-09T06:28:21;16.40;;;12.15;;
57241;SDS011;43095;53.302;5.786;2023-07-09T06:30:49;18.65;;;13.43;;
57241;SDS011;43095;53.302;5.786;2023-07-09T06:33:16;16.75;;;12.77;;
57241;SDS011;43095;53.302;5.786;2023-07-09T06:35:48;17.30;;;13.77;;
57241;SDS011;43095;53.302;5.786;2023-07-09T06:38:16;16.63;;;14.02;;
57241;SDS011;43095;53.302;5.786;2023-07-09T06:40:44;17.83;;;13.25;;
57241;SDS011;43095;53.302;5.786;2023-07-09T06:43:11;17.42;;;13.45;;
57241;SDS011;43095;53.302;5.786;2023-07-09T06:45:47;18.92;;;13.70;;
57241;SDS011;43095;53.302;5.786;2023-07-09T06:48:21;18.92;;;15.18;;
57241;SDS011;43095;53.302;5.786;2023-07-09T06:50:48;22.27;;;15.77;;
57241;SDS011;43095;53.302;5.786;2023-07-09T06:53:16;18.27;;;14.70;;
57241;SDS011;43095;53.302;5.786;2023-07-09T06:55:42;21.60;;;16.00;;
57241;SDS011;43095;53.302;5.786;2023-07-09T06:58:10;21.20;;;17.02;;
57241;SDS011;43095;53.302;5.786;2023-07-09T07:00:36;18.80;;;15.45;;
57241;SDS011;43095;53.302;5.786;2023-07-09T07:03:04;21.08;;;16.83;;
57241;SDS011;43095;53.302;5.786;2023-07-09T07:05:31;19.75;;;16.73;;
57241;SDS011;43095;53.302;5.786;2023-07-09T07:07:59;23.80;;;16.67;;
57241;SDS011;43095;53.302;5.786;2023-07-09T07:10:26;24.65;;;18.15;;
57241;SDS011;43095;53.302;5.786;2023-07-09T07:12:53;23.17;;;18.88;;
57241;SDS011;43095;53.302;5.786;2023-07-09T07:15:20;23.33;;;18.38;;
57241;SDS011;43095;53.302;5.786;2023-07-09T07:17:47;21.05;;;16.73;;
57241;SDS011;43095;53.302;5.786;2023-07-09T07:20:15;21.85;;;18.50;;
57241;SDS011;43095;53.302;5.786;2023-07-09T07:22:43;23.85;;;19.73;;
57241;SDS011;43095;53.302;5.786;2023-07-09T07:25:10;25.48;;;21.30;;
57241;SDS011;43095;53.302;5.786;2023-07-09T07:27:37;28.70;;;21.90;;
57241;SDS011;43095;53.302;5.786;2023-07-09T07:30:04;27.38;;;23.42;;
57241;SDS011;43095;53.302;5.786;2023-07-09T07:32:36;27.70;;;22.10;;
57241;SDS011;43095;53.302;5.786;2023-07-09T07:35:05;28.40;;;22.08;;
57241;SDS011;43095;53.302;5.786;2023-07-09T07:37:32;25.25;;;20.33;;
57241;SDS011;43095;53.302;5.786;2023-07-09T07:39:59;24.88;;;20.73;;
57241;SDS011;43095;53.302;5.786;2023-07-09T07:42:25;27.38;;;22.80;;
57241;SDS011;43095;53.302;5.786;2023-07-09T07:44:52;25.33;;;20.23;;
57241;SDS011;43095;53.302;5.786;2023-07-09T07:47:19;24.38;;;20.80;;
57241;SDS011;43095;53.302;5.786;2023-07-09T07:49:46;24.02;;;20.23;;
57241;SDS011;43095;53.302;5.786;2023-07-09T07:52:13;25.35;;;21.35;;
57241;SDS011;43095;53.302;5.786;2023-07-09T07:54:40;20.85;;;18.63;;
57241;SDS011;43095;53.302;5.786;2023-07-09T07:57:08;22.13;;;18.20;;
57241;SDS011;43095;53.302;5.786;2023-07-09T07:59:36;22.95;;;18.40;;
57241;SDS011;43095;53.302;5.786;2023-07-09T08:02:03;26.73;;;18.05;;
57241;SDS011;43095;53.302;5.786;2023-07-09T08:04:31;22.20;;;17.05;;
57241;SDS011;43095;53.302;5.786;2023-07-09T08:06:57;17.80;;;14.50;;
57241;SDS011;43095;53.302;5.786;2023-07-09T08:09:25;18.88;;;14.70;;
57241;SDS011;43095;53.302;5.786;2023-07-09T08:11:52;18.58;;;15.07;;
57241;SDS011;43095;53.302;5.786;2023-07-09T08:14:18;21.85;;;14.73;;
57241;SDS011;43095;53.302;5.786;2023-07-09T08:16:45;24.92;;;15.70;;
57241;SDS011;43095;53.302;5.786;2023-07-09T08:19:13;20.33;;;15.70;;
57241;SDS011;43095;53.302;5.786;2023-07-09T08:21:40;18.95;;;15.27;;
57241;SDS011;43095;53.302;5.786;2023-07-09T08:24:06;22.38;;;15.98;;
57241;SDS011;43095;53.302;5.786;2023-07-09T08:26:33;22.60;;;15.30;;
57241;SDS011;43095;53.302;5.786;2023-07-09T08:29:00;17.60;;;13.80;;
57241;SDS011;43095;53.302;5.786;2023-07-09T08:31:27;20.85;;;14.57;;
57241;SDS011;43095;53.302;5.786;2023-07-09T08:33:54;17.50;;;15.25;;
57241;SDS011;43095;53.302;5.786;2023-07-09T08:36:21;18.92;;;13.55;;
57241;SDS011;43095;53.302;5.786;2023-07-09T08:38:47;19.80;;;14.68;;
57241;SDS011;43095;53.302;5.786;2023-07-09T08:41:25;16.40;;;11.50;;
57241;SDS011;43095;53.302;5.786;2023-07-09T08:49:33;15.18;;;8.70;;
57241;SDS011;43095;53.302;5.786;2023-07-09T08:52:07;12.82;;;9.60;;
57241;SDS011;43095;53.302;5.786;2023-07-09T08:54:39;15.25;;;9.27;;
57241;SDS011;43095;53.302;5.786;2023-07-09T08:57:14;13.63;;;10.00;;
57241;SDS011;43095;53.302;5.786;2023-07-09T08:59:42;13.10;;;9.60;;
57241;SDS011;43095;53.302;5.786;2023-07-09T09:02:14;18.17;;;10.38;;
57241;SDS011;43095;53.302;5.786;2023-07-09T09:04:49;10.38;;;7.22;;
57241;SDS011;43095;53.302;5.786;2023-07-09T09:07:19;11.52;;;8.80;;
57241;SDS011;43095;53.302;5.786;2023-07-09T09:10:15;12.95;;;7.32;;
57241;SDS011;43095;53.302;5.786;2023-07-09T09:12:52;12.77;;;7.72;;
57241;SDS011;43095;53.302;5.786;2023-07-09T09:15:26;9.25;;;6.70;;
57241;SDS011;43095;53.302;5.786;2023-07-09T09:17:54;13.85;;;7.53;;
57241;SDS011;43095;53.302;5.786;2023-07-09T09:20:22;11.40;;;8.48;;
57241;SDS011;43095;53.302;5.786;2023-07-09T09:25:35;10.02;;;8.07;;
57241;SDS011;43095;53.302;5.786;2023-07-09T09:28:04;12.48;;;7.00;;
57241;SDS011;43095;53.302;5.786;2023-07-09T09:30:31;11.52;;;7.95;;
57241;SDS011;43095;53.302;5.786;2023-07-09T09:33:00;11.05;;;7.22;;
57241;SDS011;43095;53.302;5.786;2023-07-09T09:35:38;11.50;;;8.10;;
57241;SDS011;43095;53.302;5.786;2023-07-09T09:38:11;10.95;;;7.88;;
57241;SDS011;43095;53.302;5.786;2023-07-09T09:43:19;10.52;;;6.97;;
57241;SDS011;43095;53.302;5.786;2023-07-09T09:45:48;12.88;;;7.63;;
57241;SDS011;43095;53.302;5.786;2023-07-09T09:48:19;14.23;;;6.63;;
57241;SDS011;43095;53.302;5.786;2023-07-09T09:50:54;9.18;;;6.93;;
57241;SDS011;43095;53.302;5.786;2023-07-09T09:53:28;9.27;;;6.30;;
57241;SDS011;43095;53.302;5.786;2023-07-09T09:55:56;9.80;;;6.20;;
57241;SDS011;43095;53.302;5.786;2023-07-09T09:58:27;9.30;;;6.43;;
57241;SDS011;43095;53.302;5.786;2023-07-09T10:00:55;8.10;;;6.38;;
57241;SDS011;43095;53.302;5.786;2023-07-09T10:03:33;8.80;;;5.70;;
57241;SDS011;43095;53.302;5.786;2023-07-09T10:06:10;10.65;;;6.78;;
57241;SDS011;43095;53.302;5.786;2023-07-09T10:08:58;11.32;;;6.78;;
57241;SDS011;43095;53.302;5.786;2023-07-09T10:11:31;8.52;;;5.93;;
57241;SDS011;43095;53.302;5.786;2023-07-09T10:14:40;10.18;;;6.28;;
57241;SDS011;43095;53.302;5.786;2023-07-09T10:17:53;10.67;;;6.57;;
57241;SDS011;43095;53.302;5.786;2023-07-09T10:21:03;9.35;;;5.82;;
57241;SDS011;43095;53.302;5.786;2023-07-09T10:26:27;8.40;;;5.28;;
57241;SDS011;43095;53.302;5.786;2023-07-09T10:29:03;9.65;;;5.85;;
57241;SDS011;43095;53.302;5.786;2023-07-09T10:37:16;9.15;;;5.50;;
57241;SDS011;43095;53.302;5.786;2023-07-09T10:39:55;8.75;;;5.30;;
57241;SDS011;43095;53.302;5.786;2023-07-09T10:42:25;7.30;;;4.93;;
57241;SDS011;43095;53.302;5.786;2023-07-09T10:44:56;7.07;;;5.05;;
57241;SDS011;43095;53.302;5.786;2023-07-09T10:47:27;8.23;;;4.70;;
57241;SDS011;43095;53.302;5.786;2023-07-09T10:49:55;10.30;;;5.53;;
57241;SDS011;43095;53.302;5.786;2023-07-09T10:52:25;9.00;;;4.82;;
57241;SDS011;43095;53.302;5.786;2023-07-09T10:55:07;8.73;;;5.38;;
57241;SDS011;43095;53.302;5.786;2023-07-09T11:00:33;8.15;;;5.55;;
57241;SDS011;43095;53.302;5.786;2023-07-09T11:03:03;7.28;;;4.50;;
57241;SDS011;43095;53.302;5.786;2023-07-09T11:05:32;11.83;;;5.87;;
57241;SDS011;43095;53.302;5.786;2023-07-09T11:10:32;11.10;;;4.75;;
57241;SDS011;43095;53.302;5.786;2023-07-09T11:13:12;7.60;;;4.97;;
57241;SDS011;43095;53.302;5.786;2023-07-09T11:15:43;7.67;;;4.90;;
57241;SDS011;43095;53.302;5.786;2023-07-09T11:18:21;8.05;;;4.97;;
57241;SDS011;43095;53.302;5.786;2023-07-09T11:21:00;8.65;;;4.82;;
57241;SDS011;43095;53.302;5.786;2023-07-09T11:23:50;7.28;;;4.90;;
57241;SDS011;43095;53.302;5.786;2023-07-09T11:26:32;7.05;;;5.13;;
57241;SDS011;43095;53.302;5.786;2023-07-09T11:31:35;8.20;;;5.15;;
57241;SDS011;43095;53.302;5.786;2023-07-09T11:36:33;8.60;;;5.22;;
57241;SDS011;43095;53.302;5.786;2023-07-09T11:39:01;9.73;;;5.38;;
57241;SDS011;43095;53.302;5.786;2023-07-09T11:44:15;13.52;;;5.78;;
57241;SDS011;43095;53.302;5.786;2023-07-09T11:46:49;8.43;;;5.30;;
57241;SDS011;43095;53.302;5.786;2023-07-09T11:49:32;6.93;;;4.70;;
57241;SDS011;43095;53.302;5.786;2023-07-09T11:52:06;7.45;;;5.18;;
57241;SDS011;43095;53.302;5.786;2023-07-09T11:54:35;6.88;;;4.53;;
57241;SDS011;43095;53.302;5.786;2023-07-09T11:57:04;7.35;;;4.78;;
57241;SDS011;43095;53.302;5.786;2023-07-09T11:59:37;9.82;;;4.88;;
57241;SDS011;43095;53.302;5.786;2023-07-09T12:02:05;6.22;;;4.65;;
57241;SDS011;43095;53.302;5.786;2023-07-09T12:04:33;7.25;;;4.80;;
57241;SDS011;43095;53.302;5.786;2023-07-09T12:07:01;7.35;;;4.72;;
57241;SDS011;43095;53.302;5.786;2023-07-09T12:09:30;8.93;;;5.10;;
57241;SDS011;43095;53.302;5.786;2023-07-09T12:12:00;7.10;;;4.53;;
57241;SDS011;43095;53.302;5.786;2023-07-09T12:14:27;7.28;;;5.15;;
57241;SDS011;43095;53.302;5.786;2023-07-09T12:16:54;7.47;;;5.32;;
57241;SDS011;43095;53.302;5.786;2023-07-09T12:19:22;10.05;;;5.05;;
57241;SDS011;43095;53.302;5.786;2023-07-09T12:21:56;10.95;;;5.32;;
57241;SDS011;43095;53.302;5.786;2023-07-09T12:24:25;7.28;;;4.93;;
57241;SDS011;43095;53.302;5.786;2023-07-09T12:27:03;7.93;;;5.32;;
57241;SDS011;43095;53.302;5.786;2023-07-09T12:29:44;8.32;;;5.20;;
57241;SDS011;43095;53.302;5.786;2023-07-09T12:32:12;8.57;;;5.80;;
57241;SDS011;43095;53.302;5.786;2023-07-09T12:34:42;8.38;;;5.90;;
57241;SDS011;43095;53.302;5.786;2023-07-09T12:37:14;6.93;;;6.00;;
57241;SDS011;43095;53.302;5.786;2023-07-09T12:39:41;9.43;;;5.53;;
57241;SDS011;43095;53.302;5.786;2023-07-09T12:42:15;9.70;;;5.68;;
57241;SDS011;43095;53.302;5.786;2023-07-09T12:44:43;10.00;;;5.68;;
57241;SDS011;43095;53.302;5.786;2023-07-09T12:47:12;9.38;;;5.85;;
57241;SDS011;43095;53.302;5.786;2023-07-09T12:49:41;12.48;;;6.55;;
57241;SDS011;43095;53.302;5.786;2023-07-09T12:52:27;7.28;;;5.47;;
57241;SDS011;43095;53.302;5.786;2023-07-09T12:54:58;6.97;;;5.22;;
57241;SDS011;43095;53.302;5.786;2023-07-09T12:57:26;8.85;;;6.25;;
57241;SDS011;43095;53.302;5.786;2023-07-09T12:59:54;8.68;;;6.30;;
57241;SDS011;43095;53.302;5.786;2023-07-09T13:02:23;7.57;;;5.45;;
57241;SDS011;43095;53.302;5.786;2023-07-09T13:05:00;7.80;;;5.97;;
57241;SDS011;43095;53.302;5.786;2023-07-09T13:10:40;12.52;;;6.72;;
57241;SDS011;43095;53.302;5.786;2023-07-09T13:13:02;8.45;;;6.28;;
57241;SDS011;43095;53.302;5.786;2023-07-09T13:18:03;9.45;;;6.03;;
57241;SDS011;43095;53.302;5.786;2023-07-09T13:20:38;8.10;;;6.10;;
57241;SDS011;43095;53.302;5.786;2023-07-09T13:23:27;7.80;;;6.18;;
57241;SDS011;43095;53.302;5.786;2023-07-09T13:25:56;8.77;;;5.78;;
57241;SDS011;43095;53.302;5.786;2023-07-09T13:28:26;10.98;;;6.43;;
57241;SDS011;43095;53.302;5.786;2023-07-09T13:31:00;7.38;;;6.05;;
57241;SDS011;43095;53.302;5.786;2023-07-09T13:33:34;9.07;;;6.20;;
57241;SDS011;43095;53.302;5.786;2023-07-09T13:36:01;9.88;;;5.55;;
57241;SDS011;43095;53.302;5.786;2023-07-09T13:38:28;10.40;;;6.03;;
57241;SDS011;43095;53.302;5.786;2023-07-09T13:40:56;7.88;;;5.95;;
57241;SDS011;43095;53.302;5.786;2023-07-09T13:43:31;8.50;;;4.97;;
57241;SDS011;43095;53.302;5.786;2023-07-09T13:46:00;7.63;;;5.40;;
57241;SDS011;43095;53.302;5.786;2023-07-09T13:48:30;13.57;;;5.57;;
57241;SDS011;43095;53.302;5.786;2023-07-09T13:50:59;7.03;;;4.95;;
57241;SDS011;43095;53.302;5.786;2023-07-09T13:53:29;7.97;;;5.68;;
57241;SDS011;43095;53.302;5.786;2023-07-09T13:55:57;9.55;;;6.32;;
57241;SDS011;43095;53.302;5.786;2023-07-09T13:58:25;8.00;;;5.75;;
57241;SDS011;43095;53.302;5.786;2023-07-09T14:00:59;7.32;;;5.07;;
57241;SDS011;43095;53.302;5.786;2023-07-09T14:03:34;7.77;;;5.57;;
57241;SDS011;43095;53.302;5.786;2023-07-09T14:06:02;9.50;;;5.60;;
57241;SDS011;43095;53.302;5.786;2023-07-09T14:08:29;8.32;;;4.97;;
57241;SDS011;43095;53.302;5.786;2023-07-09T14:10:56;9.52;;;5.80;;
57241;SDS011;43095;53.302;5.786;2023-07-09T14:13:23;8.30;;;5.20;;
57241;SDS011;43095;53.302;5.786;2023-07-09T14:15:52;7.40;;;4.82;;
57241;SDS011;43095;53.302;5.786;2023-07-09T14:18:20;7.60;;;4.63;;
57241;SDS011;43095;53.302;5.786;2023-07-09T14:20:49;8.23;;;5.00;;
57241;SDS011;43095;53.302;5.786;2023-07-09T14:23:16;8.80;;;5.55;;
57241;SDS011;43095;53.302;5.786;2023-07-09T14:25:44;10.65;;;5.25;;
57241;SDS011;43095;53.302;5.786;2023-07-09T14:28:15;11.98;;;5.53;;
57241;SDS011;43095;53.302;5.786;2023-07-09T14:30:44;9.73;;;5.70;;
57241;SDS011;43095;53.302;5.786;2023-07-09T14:33:14;7.00;;;5.30;;
57241;SDS011;43095;53.302;5.786;2023-07-09T14:35:45;9.05;;;5.30;;
57241;SDS011;43095;53.302;5.786;2023-07-09T14:38:23;8.55;;;5.20;;
57241;SDS011;43095;53.302;5.786;2023-07-09T14:40:52;10.52;;;5.28;;
57241;SDS011;43095;53.302;5.786;2023-07-09T14:43:20;13.82;;;5.03;;
57241;SDS011;43095;53.302;5.786;2023-07-09T14:45:50;15.57;;;5.13;;
57241;SDS011;43095;53.302;5.786;2023-07-09T14:48:20;25.30;;;6.20;;
57241;SDS011;43095;53.302;5.786;2023-07-09T14:50:54;21.42;;;5.28;;
57241;SDS011;43095;53.302;5.786;2023-07-09T14:53:25;16.65;;;5.57;;
57241;SDS011;43095;53.302;5.786;2023-07-09T14:58:21;18.70;;;4.95;;
57241;SDS011;43095;53.302;5.786;2023-07-09T15:00:49;19.15;;;5.45;;
57241;SDS011;43095;53.302;5.786;2023-07-09T15:03:18;16.77;;;4.85;;
57241;SDS011;43095;53.302;5.786;2023-07-09T15:05:47;18.77;;;5.15;;
57241;SDS011;43095;53.302;5.786;2023-07-09T15:08:15;18.17;;;5.35;;
57241;SDS011;43095;53.302;5.786;2023-07-09T15:10:45;14.30;;;5.05;;
57241;SDS011;43095;53.302;5.786;2023-07-09T15:13:17;16.35;;;5.15;;
57241;SDS011;43095;53.302;5.786;2023-07-09T15:15:46;15.13;;;6.22;;
57241;SDS011;43095;53.302;5.786;2023-07-09T15:18:14;14.93;;;5.43;;
57241;SDS011;43095;53.302;5.786;2023-07-09T15:20:46;13.85;;;6.35;;
57241;SDS011;43095;53.302;5.786;2023-07-09T15:23:15;12.85;;;6.05;;
57241;SDS011;43095;53.302;5.786;2023-07-09T15:25:42;18.38;;;5.70;;
57241;SDS011;43095;53.302;5.786;2023-07-09T15:28:12;39.03;;;11.45;;